createdAt,value
2023-03-19T00:00:43.701Z,2.17
2023-03-19T00:03:11.885Z,2.93
2023-03-19T00:05:40.193Z,2.50
2023-03-19T00:08:08.618Z,2.67
2023-03-19T00:10:39.332Z,1.90
2023-03-19T00:13:08.172Z,2.20
2023-03-19T00:15:38.382Z,2.30
2023-03-19T00:18:06.757Z,2.40
2023-03-19T00:20:35.241Z,2.40
2023-03-19T00:23:03.497Z,2.50
2023-03-19T00:25:31.986Z,2.97
2023-03-19T00:28:00.476Z,2.27
2023-03-19T00:30:29.131Z,2.60
2023-03-19T00:32:58.755Z,2.40
2023-03-19T00:35:27.059Z,2.80
2023-03-19T00:37:55.349Z,2.40
2023-03-19T00:40:23.581Z,2.70
2023-03-19T00:42:52.103Z,3.20
2023-03-19T00:45:20.496Z,3.10
2023-03-19T00:47:49.511Z,2.93
2023-03-19T00:50:19.403Z,2.93
2023-03-19T00:52:47.588Z,3.03
2023-03-19T00:55:15.821Z,2.90
2023-03-19T00:57:44.080Z,2.37
2023-03-19T01:02:42.030Z,3.07
2023-03-19T01:05:10.588Z,3.00
2023-03-19T01:07:40.289Z,3.00
2023-03-19T01:10:09.615Z,2.90
2023-03-19T01:12:37.817Z,3.20
2023-03-19T01:15:08.719Z,3.90
2023-03-19T01:17:37.162Z,3.20
2023-03-19T01:20:08.846Z,3.77
2023-03-19T01:22:37.717Z,3.33
2023-03-19T01:25:08.404Z,3.37
2023-03-19T01:27:37.175Z,3.03
2023-03-19T01:30:06.371Z,3.40
2023-03-19T01:32:34.693Z,3.73
2023-03-19T01:35:02.920Z,3.50
2023-03-19T01:37:31.195Z,3.80
2023-03-19T01:39:59.486Z,3.13
2023-03-19T01:42:29.188Z,3.67
2023-03-19T01:44:57.368Z,3.53
2023-03-19T01:47:32.080Z,4.07
2023-03-19T01:50:00.742Z,4.07
2023-03-19T01:52:33.115Z,3.17
2023-03-19T01:55:04.763Z,3.50
2023-03-19T01:57:34.425Z,3.57
2023-03-19T02:00:05.041Z,3.20
2023-03-19T02:02:35.141Z,3.53
2023-03-19T02:05:07.818Z,3.60
2023-03-19T02:07:38.316Z,4.00
2023-03-19T02:10:10.461Z,3.67
2023-03-19T02:12:40.401Z,2.97
2023-03-19T02:15:09.434Z,3.80
2023-03-19T02:17:37.817Z,3.40
2023-03-19T02:20:12.916Z,3.67
2023-03-19T02:22:47.190Z,3.90
2023-03-19T02:25:20.329Z,3.80
2023-03-19T02:27:50.047Z,2.80
2023-03-19T02:30:23.745Z,3.33
2023-03-19T02:32:52.056Z,3.90
2023-03-19T02:35:20.765Z,3.77
2023-03-19T02:37:49.091Z,3.20
2023-03-19T02:40:23.635Z,3.57
2023-03-19T02:42:53.280Z,2.90
2023-03-19T02:45:21.675Z,3.47
2023-03-19T02:47:49.995Z,3.13
2023-03-19T02:50:18.329Z,3.40
2023-03-19T02:52:46.546Z,3.17
2023-03-19T02:55:14.922Z,2.40
2023-03-19T02:57:43.175Z,2.63
2023-03-19T03:00:14.224Z,2.77
2023-03-19T03:02:42.616Z,2.10
2023-03-19T03:05:11.003Z,2.73
2023-03-19T03:07:40.285Z,2.60
2023-03-19T03:10:09.281Z,2.50
2023-03-19T03:12:38.539Z,2.77
2023-03-19T03:15:08.420Z,2.37
2023-03-19T03:17:39.490Z,2.60
2023-03-19T03:20:09.495Z,2.30
2023-03-19T03:22:38.010Z,1.90
2023-03-19T03:25:07.268Z,2.10
2023-03-19T03:27:35.587Z,2.00
2023-03-19T03:30:04.046Z,2.33
2023-03-19T03:32:32.337Z,2.10
2023-03-19T03:35:01.989Z,2.30
2023-03-19T03:37:30.244Z,2.07
2023-03-19T03:39:58.552Z,2.10
2023-03-19T03:42:27.062Z,2.80
2023-03-19T03:44:55.243Z,2.20
2023-03-19T03:47:23.488Z,2.73
2023-03-19T03:49:51.878Z,2.30
2023-03-19T03:52:21.596Z,1.93
2023-03-19T03:54:49.861Z,2.77
2023-03-19T03:57:18.196Z,1.80
2023-03-19T03:59:46.446Z,2.07
2023-03-19T04:02:14.722Z,1.77
2023-03-19T04:04:43.261Z,2.53
2023-03-19T04:07:12.222Z,1.60
2023-03-19T04:09:42.105Z,2.10
2023-03-19T04:12:11.130Z,1.63
2023-03-19T04:14:39.329Z,2.27
2023-03-19T04:17:08.114Z,2.17
2023-03-19T04:19:36.462Z,2.10
2023-03-19T04:22:04.828Z,2.13
2023-03-19T04:24:33.152Z,2.00
2023-03-19T04:27:02.787Z,2.17
2023-03-19T04:29:31.246Z,1.70
2023-03-19T04:31:59.444Z,2.00
2023-03-19T04:34:27.698Z,1.90
2023-03-19T04:36:56.509Z,1.97
2023-03-19T04:39:24.803Z,2.20
2023-03-19T04:41:53.042Z,2.10
2023-03-19T04:44:23.612Z,1.90
2023-03-19T04:46:51.852Z,2.20
2023-03-19T04:49:20.716Z,1.77
2023-03-19T04:51:48.952Z,1.90
2023-03-19T04:54:17.733Z,1.80
2023-03-19T04:56:45.988Z,1.90
2023-03-19T04:59:14.526Z,2.23
2023-03-19T05:01:44.341Z,2.10
2023-03-19T05:04:13.028Z,1.43
2023-03-19T05:06:43.787Z,2.30
2023-03-19T05:09:12.048Z,1.90
2023-03-19T05:11:40.396Z,1.43
2023-03-19T05:14:08.662Z,1.60
2023-03-19T05:16:37.148Z,1.77
2023-03-19T05:19:06.863Z,1.90
2023-03-19T05:21:35.105Z,1.63
2023-03-19T05:24:03.340Z,2.00
2023-03-19T05:26:32.155Z,2.00
2023-03-19T05:29:00.420Z,1.50
2023-03-19T05:31:28.629Z,1.70
2023-03-19T05:33:56.983Z,1.87
2023-03-19T05:36:26.805Z,1.80
2023-03-19T05:38:55.101Z,1.60
2023-03-19T05:41:23.352Z,1.80
2023-03-19T05:43:52.003Z,1.73
2023-03-19T05:46:20.256Z,1.50
2023-03-19T05:48:48.538Z,1.70
2023-03-19T05:51:17.577Z,1.80
2023-03-19T05:53:48.387Z,1.37
2023-03-19T05:56:16.687Z,1.57
2023-03-19T05:58:44.954Z,1.20
2023-03-19T06:01:13.419Z,1.43
2023-03-19T06:03:41.669Z,1.57
2023-03-19T06:06:10.143Z,1.63
2023-03-19T06:08:38.424Z,1.40
2023-03-19T06:11:08.096Z,1.23
2023-03-19T06:13:36.466Z,1.10
2023-03-19T06:16:04.931Z,1.73
2023-03-19T06:18:33.397Z,1.30
2023-03-19T06:21:01.744Z,1.40
2023-03-19T06:23:29.941Z,1.67
2023-03-19T06:25:58.135Z,1.60
2023-03-19T06:28:27.636Z,1.40
2023-03-19T06:30:56.034Z,1.70
2023-03-19T06:33:27.494Z,1.40
2023-03-19T06:35:56.333Z,1.20
2023-03-19T06:38:24.623Z,1.60
2023-03-19T06:40:52.953Z,1.57
2023-03-19T06:43:21.853Z,1.40
2023-03-19T06:45:52.056Z,1.40
2023-03-19T06:48:20.636Z,1.30
2023-03-19T06:50:49.096Z,1.97
2023-03-19T06:53:17.313Z,1.90
2023-03-19T06:55:47.351Z,1.63
2023-03-19T06:58:15.622Z,1.33
2023-03-19T07:00:43.895Z,1.90
2023-03-19T07:03:13.544Z,1.47
2023-03-19T07:05:41.764Z,1.23
2023-03-19T07:08:12.091Z,1.30
2023-03-19T07:10:40.555Z,1.37
2023-03-19T07:13:08.874Z,1.60
2023-03-19T07:15:37.287Z,1.40
2023-03-19T07:18:06.172Z,1.50
2023-03-19T07:20:36.562Z,1.20
2023-03-19T07:23:04.923Z,1.03
2023-03-19T07:25:33.160Z,1.50
2023-03-19T07:28:01.405Z,1.20
2023-03-19T07:30:29.756Z,1.20
2023-03-19T07:32:58.104Z,1.40
2023-03-19T07:35:26.635Z,2.00
2023-03-19T07:37:56.221Z,1.43
2023-03-19T07:40:24.443Z,1.50
2023-03-19T07:42:52.770Z,1.20
2023-03-19T07:45:21.348Z,1.00
2023-03-19T07:47:51.488Z,1.13
2023-03-19T07:50:20.390Z,1.57
2023-03-19T07:52:51.264Z,1.00
2023-03-19T07:55:21.198Z,1.23
2023-03-19T07:57:49.449Z,0.90
2023-03-19T08:00:18.716Z,1.43
2023-03-19T08:02:47.080Z,1.07
2023-03-19T08:05:16.147Z,1.20
2023-03-19T08:07:45.070Z,1.30
2023-03-19T08:10:13.536Z,1.10
2023-03-19T08:12:43.062Z,1.30
2023-03-19T08:15:12.474Z,1.10
2023-03-19T08:17:41.091Z,1.20
2023-03-19T08:20:11.259Z,1.70
2023-03-19T08:22:40.521Z,1.03
2023-03-19T08:25:10.528Z,1.40
2023-03-19T08:27:38.781Z,1.70
2023-03-19T08:30:10.688Z,1.50
2023-03-19T08:32:39.394Z,1.17
2023-03-19T08:35:08.525Z,1.50
2023-03-19T08:37:38.236Z,1.43
2023-03-19T08:40:07.577Z,1.57
2023-03-19T08:42:38.784Z,1.17
2023-03-19T08:45:09.911Z,1.60
2023-03-19T08:47:38.246Z,1.40
2023-03-19T08:50:07.835Z,1.53
2023-03-19T08:52:36.138Z,1.77
2023-03-19T08:55:05.434Z,2.03
2023-03-19T08:57:34.082Z,1.73
2023-03-19T09:00:04.386Z,2.10
2023-03-19T09:02:34.396Z,2.20
2023-03-19T09:05:02.612Z,2.00
2023-03-19T09:07:31.121Z,1.90
2023-03-19T09:09:59.278Z,1.83
2023-03-19T09:12:27.606Z,2.10
2023-03-19T09:14:55.816Z,1.80
2023-03-19T09:17:23.988Z,2.37
2023-03-19T09:19:53.540Z,1.80
2023-03-19T09:22:21.754Z,2.40
2023-03-19T09:24:50.160Z,2.10
2023-03-19T09:27:19.013Z,2.13
2023-03-19T09:29:47.524Z,1.90
2023-03-19T09:32:15.810Z,1.90
2023-03-19T09:34:44.216Z,1.60
2023-03-19T09:37:13.823Z,1.90
2023-03-19T09:39:42.083Z,1.70
2023-03-19T09:42:25.396Z,1.97
2023-03-19T09:44:54.403Z,1.50
2023-03-19T09:47:29.108Z,1.77
2023-03-19T09:49:59.211Z,1.83
2023-03-19T09:52:36.278Z,2.00
2023-03-19T09:55:12.119Z,1.57
2023-03-19T09:57:40.558Z,1.40
2023-03-19T10:00:23.783Z,1.50
2023-03-19T10:02:58.273Z,1.50
2023-03-19T10:05:33.673Z,1.47
2023-03-19T10:08:23.469Z,1.50
2023-03-19T10:11:00.967Z,1.30
2023-03-19T10:13:44.846Z,1.50
2023-03-19T10:16:18.439Z,1.60
2023-03-19T10:18:50.817Z,1.60
2023-03-19T10:21:26.500Z,1.40
2023-03-19T10:23:59.282Z,2.00
2023-03-19T10:26:31.987Z,1.70
2023-03-19T10:29:06.690Z,1.67
2023-03-19T10:31:48.215Z,1.30
2023-03-19T10:34:31.195Z,1.83
2023-03-19T10:37:01.731Z,1.80
2023-03-19T10:39:33.804Z,2.00
2023-03-19T10:42:19.441Z,1.60
2023-03-19T10:44:52.298Z,1.60
2023-03-19T10:47:22.617Z,1.80
2023-03-19T10:49:51.877Z,1.87
2023-03-19T10:52:24.057Z,1.80
2023-03-19T10:54:58.290Z,2.30
2023-03-19T10:57:28.518Z,2.10
2023-03-19T10:59:56.892Z,1.97
2023-03-19T11:02:31.225Z,1.53
2023-03-19T11:05:20.150Z,1.57
2023-03-19T11:07:51.053Z,1.60
2023-03-19T11:10:22.082Z,1.60
2023-03-19T11:12:55.705Z,1.60
2023-03-19T11:15:27.179Z,1.60
2023-03-19T11:17:58.828Z,1.70
2023-03-19T11:20:31.865Z,1.83
2023-03-19T11:23:03.104Z,1.73
2023-03-19T11:25:40.668Z,1.73
2023-03-19T11:28:11.215Z,1.80
2023-03-19T11:30:46.461Z,1.60
2023-03-19T11:33:37.800Z,1.40
2023-03-19T11:36:12.850Z,1.63
2023-03-19T11:38:51.146Z,1.63
2023-03-19T11:41:31.472Z,2.50
2023-03-19T11:44:04.744Z,2.10
2023-03-19T11:46:40.478Z,2.10
2023-03-19T11:49:27.639Z,2.23
2023-03-19T11:52:04.188Z,2.60
2023-03-19T11:54:44.898Z,2.07
2023-03-19T11:57:22.354Z,2.07
2023-03-19T12:00:08.086Z,2.80
2023-03-19T12:03:05.645Z,2.10
2023-03-19T12:05:39.188Z,2.33
2023-03-19T12:08:25.293Z,1.93
2023-03-19T12:11:03.028Z,2.47
2023-03-19T12:13:50.711Z,2.40
2023-03-19T12:16:28.609Z,2.60
2023-03-19T12:19:14.535Z,1.63
2023-03-19T12:21:51.662Z,2.47
2023-03-19T12:24:29.765Z,2.50
2023-03-19T12:27:08.210Z,1.80
2023-03-19T12:29:48.114Z,1.80
2023-03-19T12:32:29.478Z,1.70
2023-03-19T12:35:05.813Z,1.80
2023-03-19T12:37:38.212Z,1.50
2023-03-19T12:40:16.408Z,1.67
2023-03-19T12:42:44.907Z,1.90
2023-03-19T12:45:26.079Z,1.60
2023-03-19T12:47:58.413Z,1.47
2023-03-19T12:50:28.614Z,1.97
2023-03-19T12:53:00.570Z,1.63
2023-03-19T12:55:38.324Z,1.73
2023-03-19T12:58:16.221Z,1.60
2023-03-19T13:00:52.592Z,1.60
2023-03-19T13:03:29.023Z,1.73
2023-03-19T13:06:03.956Z,1.83
2023-03-19T13:08:36.289Z,2.00
2023-03-19T13:11:11.553Z,1.70
2023-03-19T13:13:44.790Z,1.70
2023-03-19T13:16:30.504Z,1.43
2023-03-19T13:19:12.054Z,2.07
2023-03-19T13:21:42.332Z,1.70
2023-03-19T13:24:21.025Z,1.97
2023-03-19T13:26:50.879Z,2.80
2023-03-19T13:29:22.568Z,1.83
2023-03-19T13:31:53.242Z,1.63
2023-03-19T13:34:26.041Z,2.57
2023-03-19T13:37:01.599Z,2.20
2023-03-19T13:39:32.738Z,2.20
2023-03-19T13:42:38.616Z,2.00
2023-03-19T13:45:36.695Z,2.63
2023-03-19T13:48:26.382Z,1.60
2023-03-19T13:51:00.804Z,1.83
2023-03-19T13:53:39.330Z,1.80
2023-03-19T13:56:26.280Z,2.00
2023-03-19T13:59:23.702Z,1.87
2023-03-19T14:01:52.156Z,1.77
2023-03-19T14:04:26.296Z,1.93
2023-03-19T14:06:57.579Z,1.87
2023-03-19T14:09:38.304Z,1.53
2023-03-19T14:12:33.294Z,1.70
2023-03-19T14:15:05.816Z,1.53
2023-03-19T14:17:37.333Z,1.90
2023-03-19T14:20:31.471Z,1.40
2023-03-19T14:23:13.004Z,1.30
2023-03-19T14:25:57.761Z,1.30
2023-03-19T14:28:34.328Z,1.07
2023-03-19T14:31:03.614Z,1.20
2023-03-19T14:33:43.050Z,1.30
2023-03-19T14:36:16.888Z,0.97
2023-03-19T14:38:50.320Z,1.10
2023-03-19T14:41:21.261Z,1.17
2023-03-19T14:44:23.008Z,1.10
2023-03-19T14:47:11.995Z,1.47
2023-03-19T14:50:22.807Z,1.13
2023-03-19T14:52:59.332Z,1.33
2023-03-19T14:55:35.410Z,1.30
2023-03-19T14:58:04.208Z,1.20
2023-03-19T15:00:43.207Z,1.00
2023-03-19T15:03:22.724Z,1.23
2023-03-19T15:05:57.425Z,1.60
2023-03-19T15:08:27.781Z,1.30
2023-03-19T15:11:07.019Z,1.30
2023-03-19T15:14:01.025Z,1.70
2023-03-19T15:16:39.552Z,2.00
2023-03-19T15:19:10.299Z,1.33
2023-03-19T15:21:38.688Z,1.57
2023-03-19T15:24:17.672Z,1.30
2023-03-19T15:26:46.884Z,1.60
2023-03-19T15:29:18.531Z,1.27
2023-03-19T15:31:54.800Z,1.27
2023-03-19T15:34:30.689Z,1.40
2023-03-19T15:37:04.817Z,1.13
2023-03-19T15:39:38.129Z,1.20
2023-03-19T15:42:06.861Z,1.30
2023-03-19T15:44:40.585Z,2.17
2023-03-19T15:47:13.168Z,1.57
2023-03-19T15:49:44.548Z,6.90
2023-03-19T15:52:18.408Z,2.60
2023-03-19T15:54:48.536Z,1.73
2023-03-19T15:57:18.944Z,2.03
2023-03-19T15:59:48.720Z,2.00
2023-03-19T16:02:25.919Z,2.10
2023-03-19T16:05:20.303Z,1.73
2023-03-19T16:07:44.535Z,1.77
2023-03-19T16:10:43.175Z,1.60
2023-03-19T16:13:27.126Z,1.53
2023-03-19T16:15:58.092Z,1.53
2023-03-19T16:18:31.850Z,1.60
2023-03-19T16:21:09.869Z,1.10
2023-03-19T16:23:41.900Z,1.63
2023-03-19T16:26:22.856Z,1.60
2023-03-19T16:29:03.858Z,1.93
2023-03-19T16:31:34.189Z,2.20
2023-03-19T16:34:02.820Z,2.23
2023-03-19T16:36:33.644Z,3.17
2023-03-19T16:39:24.227Z,2.70
2023-03-19T16:42:17.036Z,2.67
2023-03-19T16:44:48.290Z,3.00
2023-03-19T16:47:16.899Z,3.33
2023-03-19T16:49:46.843Z,4.43
2023-03-19T16:52:18.092Z,4.03
2023-03-19T16:54:46.758Z,3.63
2023-03-19T16:57:17.891Z,4.10
2023-03-19T16:59:47.596Z,4.07
2023-03-19T17:02:18.049Z,3.97
2023-03-19T17:04:47.029Z,4.23
2023-03-19T17:07:15.301Z,4.17
2023-03-19T17:09:43.897Z,4.77
2023-03-19T17:12:17.702Z,4.43
2023-03-19T17:14:46.650Z,3.67
2023-03-19T17:17:24.037Z,3.70
2023-03-19T17:20:06.948Z,2.70
2023-03-19T17:22:35.880Z,3.10
2023-03-19T17:25:04.308Z,3.47
2023-03-19T17:27:37.900Z,3.93
2023-03-19T17:33:30.159Z,3.10
2023-03-19T17:35:59.515Z,3.40
2023-03-19T17:38:34.459Z,4.00
2023-03-19T17:41:15.548Z,4.20
2023-03-19T17:43:45.950Z,4.40
2023-03-19T17:46:18.456Z,9.90
2023-03-19T17:48:47.648Z,5.90
2023-03-19T17:51:16.977Z,5.10
2023-03-19T17:53:49.838Z,7.70
2023-03-19T17:56:47.517Z,7.93
2023-03-19T17:59:18.489Z,7.17
2023-03-19T18:05:25.036Z,4.50
2023-03-19T18:07:56.326Z,5.27
2023-03-19T18:10:27.540Z,6.27
2023-03-19T18:13:07.349Z,5.83
2023-03-19T18:15:41.531Z,5.40
2023-03-19T18:18:17.986Z,5.40
2023-03-19T18:20:48.620Z,4.80
2023-03-19T18:23:17.693Z,5.50
2023-03-19T18:25:47.500Z,6.10
2023-03-19T18:28:24.361Z,5.37
2023-03-19T18:30:59.208Z,5.93
2023-03-19T18:33:39.512Z,6.10
2023-03-19T18:36:08.990Z,6.50
2023-03-19T18:38:41.797Z,6.23
2023-03-19T18:41:13.821Z,6.27
2023-03-19T18:43:42.472Z,6.73
2023-03-19T18:46:15.447Z,6.27
2023-03-19T18:48:44.852Z,7.00
2023-03-19T18:51:14.142Z,6.33
2023-03-19T18:53:48.124Z,7.07
2023-03-19T18:56:23.972Z,7.17
2023-03-19T18:59:04.896Z,6.97
2023-03-19T19:01:40.814Z,6.27
2023-03-19T19:04:11.352Z,7.00
2023-03-19T19:06:47.675Z,6.20
2023-03-19T19:09:16.962Z,6.37
2023-03-19T19:11:48.410Z,6.23
2023-03-19T19:14:23.829Z,6.53
2023-03-19T19:16:56.234Z,7.10
2023-03-19T19:19:27.780Z,6.80
2023-03-19T19:21:56.391Z,6.03
2023-03-19T19:24:29.883Z,6.30
2023-03-19T19:27:01.463Z,7.27
2023-03-19T19:29:31.156Z,7.40
2023-03-19T19:32:04.323Z,7.07
2023-03-19T19:34:32.985Z,7.20
2023-03-19T19:37:01.314Z,6.80
2023-03-19T19:39:29.565Z,6.60
2023-03-19T19:41:57.892Z,7.90
2023-03-19T19:44:26.323Z,9.17
2023-03-19T19:46:55.732Z,8.13
2023-03-19T19:49:27.106Z,7.90
2023-03-19T19:51:56.039Z,7.77
2023-03-19T19:54:25.688Z,7.30
2023-03-19T19:56:53.978Z,7.53
2023-03-19T19:59:26.281Z,7.27
2023-03-19T20:01:54.703Z,7.93
2023-03-19T20:04:23.201Z,7.17
2023-03-19T20:06:52.725Z,7.30
2023-03-19T20:09:22.067Z,6.70
2023-03-19T20:11:50.345Z,6.80
2023-03-19T20:14:18.637Z,6.33
2023-03-19T20:16:48.762Z,5.83
2023-03-19T20:19:19.442Z,5.63
2023-03-19T20:21:47.714Z,6.57
2023-03-19T20:24:18.385Z,6.20
2023-03-19T20:26:46.716Z,6.47
2023-03-19T20:29:16.545Z,6.50
2023-03-19T20:31:47.146Z,6.47
2023-03-19T20:34:25.535Z,9.43
2023-03-19T20:37:00.864Z,8.20
2023-03-19T20:39:30.736Z,8.70
2023-03-19T20:41:58.940Z,10.43
2023-03-19T20:44:27.305Z,10.37
2023-03-19T20:46:55.499Z,9.00
2023-03-19T20:49:23.729Z,10.33
2023-03-19T20:51:51.884Z,11.07
2023-03-19T20:54:20.173Z,10.83
2023-03-19T20:56:49.823Z,12.80
2023-03-19T20:59:18.054Z,13.13
2023-03-19T21:01:46.455Z,13.43
2023-03-19T21:04:20.837Z,13.60
2023-03-19T21:06:53.528Z,13.63
2023-03-19T21:09:23.015Z,15.17
2023-03-19T21:11:52.815Z,17.30
2023-03-19T21:14:23.326Z,19.83
2023-03-19T21:16:51.767Z,19.50
2023-03-19T21:19:20.008Z,18.80
2023-03-19T21:21:48.473Z,18.30
2023-03-19T21:24:20.325Z,19.40
2023-03-19T21:26:48.942Z,19.43
2023-03-19T21:29:27.181Z,21.13
2023-03-19T21:31:56.565Z,19.10
2023-03-19T21:34:25.299Z,19.80
2023-03-19T21:36:54.272Z,20.40
2023-03-19T21:39:22.696Z,19.83
2023-03-19T21:41:51.021Z,20.17
2023-03-19T21:44:24.377Z,20.57
2023-03-19T21:46:52.773Z,20.33
2023-03-19T21:49:21.852Z,18.93
2023-03-19T21:51:50.316Z,19.13
2023-03-19T21:54:18.765Z,20.17
2023-03-19T21:56:47.296Z,19.10
2023-03-19T21:59:18.673Z,19.63
2023-03-19T22:01:48.339Z,18.70
2023-03-19T22:04:16.893Z,18.47
2023-03-19T22:06:46.607Z,19.40
2023-03-19T22:09:14.923Z,19.07
2023-03-19T22:11:44.203Z,17.10
2023-03-19T22:14:19.543Z,18.10
2023-03-19T22:16:53.489Z,20.03
2023-03-19T22:19:22.674Z,18.63
2023-03-19T22:21:51.134Z,17.97
2023-03-19T22:24:19.458Z,17.10
2023-03-19T22:26:49.774Z,16.10
2023-03-19T22:29:20.521Z,17.80
2023-03-19T22:31:51.999Z,17.80
2023-03-19T22:34:23.115Z,15.70
2023-03-19T22:36:51.758Z,16.67
2023-03-19T22:39:20.000Z,15.70
2023-03-19T22:41:49.142Z,16.73
2023-03-19T22:44:23.992Z,16.67
2023-03-19T22:46:54.169Z,16.00
2023-03-19T22:49:22.394Z,15.20
2023-03-19T22:51:51.217Z,15.30
2023-03-19T22:54:19.424Z,13.27
2023-03-19T22:56:47.609Z,12.93
2023-03-19T22:59:16.021Z,13.80
2023-03-19T23:01:47.331Z,12.80
2023-03-19T23:04:22.967Z,13.93
2023-03-19T23:06:52.416Z,12.20
2023-03-19T23:09:24.136Z,13.53
2023-03-19T23:11:53.697Z,12.40
2023-03-19T23:14:29.676Z,12.63
2023-03-19T23:17:01.588Z,11.40
2023-03-19T23:19:33.689Z,13.20
2023-03-19T23:22:04.787Z,13.83
2023-03-19T23:24:33.760Z,12.23
2023-03-19T23:27:02.621Z,15.40
2023-03-19T23:29:34.194Z,14.20
2023-03-19T23:32:03.454Z,16.73
2023-03-19T23:34:39.665Z,14.70
2023-03-19T23:37:14.619Z,16.20
2023-03-19T23:39:43.553Z,17.07
2023-03-19T23:42:18.082Z,19.03
2023-03-19T23:44:48.255Z,18.57
2023-03-19T23:47:17.068Z,18.57
2023-03-19T23:49:46.847Z,18.90
2023-03-19T23:52:15.136Z,18.53
2023-03-19T23:54:43.396Z,18.67
2023-03-19T23:57:15.570Z,18.40
2023-03-19T23:59:46.914Z,16.90
